createdAt,value
2022-11-05T00:00:37.189Z,100709.50
2022-11-05T00:03:23.481Z,100710.38
2022-11-05T00:06:12.407Z,100718.31
2022-11-05T00:08:59.806Z,100724.50
2022-11-05T00:11:46.711Z,100732.44
2022-11-05T00:14:32.366Z,100737.78
2022-11-05T00:16:59.127Z,100736.00
2022-11-05T00:19:25.904Z,100739.53
2022-11-05T00:22:11.131Z,100736.88
2022-11-05T00:24:56.348Z,100743.94
2022-11-05T00:27:23.134Z,100743.97
2022-11-05T00:29:49.920Z,100761.63
2022-11-05T00:32:16.674Z,100750.13
2022-11-05T00:34:43.460Z,100752.78
2022-11-05T00:37:10.264Z,100751.88
2022-11-05T00:39:37.160Z,100760.69
2022-11-05T00:42:22.819Z,100755.41
2022-11-05T00:45:01.376Z,100759.84
2022-11-05T00:47:47.601Z,100764.22
2022-11-05T00:50:14.390Z,100756.31
2022-11-05T00:52:55.955Z,100768.66
2022-11-05T00:55:41.960Z,100780.13
2022-11-05T00:58:20.673Z,100775.72
2022-11-05T01:00:54.443Z,100763.34
2022-11-05T01:03:28.407Z,100777.47
2022-11-05T01:05:58.977Z,100774.81
2022-11-05T01:08:28.004Z,100773.03
2022-11-05T01:10:58.035Z,100773.03
2022-11-05T01:13:29.979Z,100779.19
2022-11-05T01:15:57.381Z,100792.41
2022-11-05T01:18:25.222Z,100790.66
2022-11-05T01:20:52.223Z,100790.66
2022-11-05T01:23:19.592Z,100804.75
2022-11-05T01:25:46.667Z,100801.25
2022-11-05T01:28:13.482Z,100798.59
2022-11-05T01:30:40.327Z,100803.00
2022-11-05T01:33:07.301Z,100801.25
2022-11-05T01:35:34.172Z,100795.03
2022-11-05T01:38:00.954Z,100795.06
2022-11-05T01:40:27.773Z,100795.03
2022-11-05T01:42:54.575Z,100805.63
2022-11-05T01:45:30.380Z,100801.22
2022-11-05T01:48:23.764Z,100804.72
2022-11-05T01:51:12.118Z,100798.53
2022-11-05T01:53:50.252Z,100801.19
2022-11-05T01:56:48.471Z,100799.41
2022-11-05T01:59:26.315Z,100806.47
2022-11-05T02:01:54.282Z,100809.97
2022-11-05T02:04:44.391Z,100802.91
2022-11-05T02:07:11.860Z,100801.16
2022-11-05T02:09:47.419Z,100804.69
2022-11-05T02:12:15.319Z,100799.38
2022-11-05T02:14:42.149Z,100807.31
2022-11-05T02:17:20.724Z,100802.03
2022-11-05T02:19:58.783Z,100803.78
2022-11-05T02:23:03.884Z,100803.78
2022-11-05T02:26:01.992Z,100811.66
2022-11-05T02:29:27.367Z,100810.78
2022-11-05T02:32:37.684Z,100808.13
2022-11-05T02:35:38.665Z,100813.41
2022-11-05T02:38:35.453Z,100810.75
2022-11-05T02:41:18.569Z,100819.56
2022-11-05T02:44:06.059Z,100814.25
2022-11-05T02:46:48.421Z,100802.81
2022-11-05T02:49:42.523Z,100812.50
2022-11-05T02:52:33.658Z,100810.72
2022-11-05T02:55:30.492Z,100807.19
2022-11-05T02:57:59.782Z,100805.41
2022-11-05T03:00:53.841Z,100807.16
2022-11-05T03:03:33.285Z,100809.78
2022-11-05T03:06:17.971Z,100810.66
2022-11-05T03:09:10.643Z,100814.19
2022-11-05T03:12:14.226Z,100815.94
2022-11-05T03:15:24.239Z,100817.66
2022-11-05T03:18:12.075Z,100824.72
2022-11-05T03:20:54.958Z,100819.44
2022-11-05T03:23:40.798Z,100827.34
2022-11-05T03:26:19.730Z,100832.63
2022-11-05T03:29:06.516Z,100824.69
2022-11-05T03:31:36.829Z,100836.16
2022-11-05T03:34:06.544Z,100852.00
2022-11-05T03:36:42.860Z,100838.78
2022-11-05T03:39:20.281Z,100851.13
2022-11-05T03:41:49.419Z,100847.56
2022-11-05T03:44:23.689Z,100851.09
2022-11-05T03:46:50.843Z,100854.59
2022-11-05T03:49:32.377Z,100849.28
2022-11-05T03:52:09.736Z,100853.69
2022-11-05T03:54:36.928Z,100865.13
2022-11-05T03:57:11.331Z,100858.97
2022-11-05T03:59:44.918Z,100869.53
2022-11-05T04:02:14.396Z,100859.84
2022-11-05T04:04:41.314Z,100861.56
2022-11-05T04:07:29.181Z,100865.09
2022-11-05T04:10:14.846Z,100872.13
2022-11-05T04:13:00.166Z,100873.00
2022-11-05T04:15:27.278Z,100880.03
2022-11-05T04:17:55.431Z,100881.81
2022-11-05T04:20:40.478Z,100885.31
2022-11-05T04:23:25.627Z,100894.13
2022-11-05T04:25:52.424Z,100880.84
2022-11-05T04:28:19.427Z,100886.13
2022-11-05T04:30:46.216Z,100891.44
2022-11-05T04:33:16.859Z,100887.91
2022-11-05T04:35:48.633Z,100892.28
2022-11-05T04:38:18.297Z,100898.41
2022-11-05T04:40:46.321Z,100894.91
2022-11-05T04:43:16.831Z,100900.16
2022-11-05T04:45:44.200Z,100893.09
2022-11-05T04:48:11.756Z,100896.59
2022-11-05T04:50:39.308Z,100905.41
2022-11-05T04:53:06.244Z,100907.16
2022-11-05T04:55:33.032Z,100907.09
2022-11-05T04:57:59.824Z,100911.50
2022-11-05T05:00:26.752Z,100911.47
2022-11-05T05:02:53.703Z,100914.09
2022-11-05T05:05:22.459Z,100914.97
2022-11-05T05:07:49.216Z,100918.47
2022-11-05T05:10:15.977Z,100921.97
2022-11-05T05:12:42.915Z,100917.56
2022-11-05T05:15:09.932Z,100928.13
2022-11-05T05:17:36.783Z,100924.56
2022-11-05T05:20:22.595Z,100927.22
2022-11-05T05:22:54.232Z,100922.81
2022-11-05T05:25:21.499Z,100924.53
2022-11-05T05:27:48.766Z,100931.63
2022-11-05T05:30:15.775Z,100936.00
2022-11-05T05:32:42.546Z,100929.78
2022-11-05T05:35:09.632Z,100931.56
2022-11-05T05:37:36.428Z,100940.31
2022-11-05T05:40:03.300Z,100944.72
2022-11-05T05:42:30.111Z,100948.25
2022-11-05T05:44:56.893Z,100942.94
2022-11-05T05:47:23.760Z,100949.94
2022-11-05T05:49:50.524Z,100951.69
2022-11-05T05:52:17.286Z,100957.88
2022-11-05T05:54:44.029Z,100961.38
2022-11-05T05:57:10.887Z,100964.88
2022-11-05T05:59:37.647Z,100964.84
2022-11-05T06:02:04.612Z,100963.94
2022-11-05T06:04:31.638Z,100963.06
2022-11-05T06:06:58.417Z,100962.16
2022-11-05T06:09:25.161Z,100960.34
2022-11-05T06:11:51.992Z,100962.97
2022-11-05T06:14:18.750Z,100969.16
2022-11-05T06:16:45.732Z,100964.72
2022-11-05T06:19:12.554Z,100970.88
2022-11-05T06:21:39.325Z,100967.31
2022-11-05T06:24:06.522Z,100977.03
2022-11-05T06:26:34.493Z,100977.84
2022-11-05T06:29:01.245Z,100969.94
2022-11-05T06:31:28.013Z,100973.44
2022-11-05T06:33:54.808Z,100984.88
2022-11-05T06:36:21.689Z,100983.09
2022-11-05T06:38:48.511Z,100992.78
2022-11-05T06:41:15.504Z,100991.03
2022-11-05T06:43:42.297Z,100992.78
2022-11-05T06:46:11.135Z,100998.97
2022-11-05T06:48:38.544Z,100998.09
2022-11-05T06:51:06.764Z,100996.34
2022-11-05T06:53:34.420Z,101007.81
2022-11-05T06:56:06.598Z,101006.09
2022-11-05T06:58:33.810Z,101018.44
2022-11-05T07:01:07.852Z,101017.56
2022-11-05T07:03:38.457Z,101016.75
2022-11-05T07:06:07.216Z,101023.81
2022-11-05T07:08:36.246Z,101028.25
2022-11-05T07:11:03.819Z,101030.06
2022-11-05T07:13:30.658Z,101034.50
2022-11-05T07:15:58.145Z,101046.00
2022-11-05T07:18:25.208Z,101037.28
2022-11-05T07:20:51.982Z,101027.63
2022-11-05T07:23:18.783Z,101028.59
2022-11-05T07:25:45.555Z,101036.59
2022-11-05T07:28:14.329Z,101046.34
2022-11-05T07:30:41.380Z,101046.41
2022-11-05T07:33:08.489Z,101058.84
2022-11-05T07:35:35.608Z,101052.81
2022-11-05T07:38:02.741Z,101062.59
2022-11-05T07:40:30.305Z,101060.94
2022-11-05T07:43:00.186Z,101056.66
2022-11-05T07:45:30.224Z,101060.25
2022-11-05T07:48:00.537Z,101056.78
2022-11-05T07:50:32.590Z,101059.50
2022-11-05T07:53:05.932Z,101061.34
2022-11-05T07:55:33.325Z,101064.00
2022-11-05T07:58:00.174Z,101060.56
2022-11-05T08:00:28.380Z,101074.72
2022-11-05T08:03:08.412Z,101074.75
2022-11-05T08:05:38.516Z,101065.97
2022-11-05T08:08:08.088Z,101066.91
2022-11-05T08:10:35.441Z,101072.25
2022-11-05T08:13:02.486Z,101075.88
2022-11-05T08:15:29.557Z,101075.88
2022-11-05T08:18:06.869Z,101079.47
2022-11-05T08:20:34.779Z,101076.84
2022-11-05T08:23:01.707Z,101086.63
2022-11-05T08:25:29.053Z,101084.88
2022-11-05T08:27:58.393Z,101086.69
2022-11-05T08:30:25.635Z,101084.03
2022-11-05T08:32:58.259Z,101098.19
2022-11-05T08:35:26.331Z,101099.97
2022-11-05T08:37:58.096Z,101101.78
2022-11-05T08:40:26.015Z,101101.78
2022-11-05T08:42:53.366Z,101097.38
2022-11-05T08:45:20.121Z,101108.88
2022-11-05T08:47:46.917Z,101105.34
2022-11-05T08:50:13.689Z,101106.25
2022-11-05T08:52:41.064Z,101104.50
2022-11-05T08:55:08.458Z,101115.13
2022-11-05T08:57:35.231Z,101112.50
2022-11-05T09:00:02.024Z,101120.47
2022-11-05T09:02:28.861Z,101126.63
2022-11-05T09:04:55.659Z,101121.34
2022-11-05T09:07:22.909Z,101120.47
2022-11-05T09:09:49.688Z,101120.50
2022-11-05T09:12:16.651Z,101126.69
2022-11-05T09:14:43.444Z,101125.84
2022-11-05T09:17:20.798Z,101128.53
2022-11-05T09:19:47.892Z,101136.50
2022-11-05T09:22:14.733Z,101138.25
2022-11-05T09:24:42.832Z,101139.16
2022-11-05T09:27:14.523Z,101141.78
2022-11-05T09:29:42.423Z,101130.28
2022-11-05T09:32:09.612Z,101143.59
2022-11-05T09:34:36.628Z,101140.94
2022-11-05T09:37:03.578Z,101148.00
2022-11-05T09:39:30.414Z,101147.13
2022-11-05T09:42:05.409Z,101149.78
2022-11-05T09:44:59.311Z,101148.91
2022-11-05T09:47:52.463Z,101152.41
2022-11-05T09:50:31.241Z,101145.34
2022-11-05T09:52:58.520Z,101148.88
2022-11-05T09:55:34.745Z,101157.75
2022-11-05T09:58:10.628Z,101156.84
2022-11-05T10:00:37.506Z,101147.09
2022-11-05T10:03:10.976Z,101149.72
2022-11-05T10:05:39.153Z,101150.63
2022-11-05T10:08:19.991Z,101163.00
2022-11-05T10:10:52.830Z,101152.38
2022-11-05T10:13:30.017Z,101158.56
2022-11-05T10:16:21.777Z,101158.56
2022-11-05T10:18:58.970Z,101160.31
2022-11-05T10:21:51.417Z,101154.97
2022-11-05T10:24:19.483Z,101162.97
2022-11-05T10:26:50.767Z,101159.41
2022-11-05T10:29:29.261Z,101160.28
2022-11-05T10:32:03.361Z,101166.47
2022-11-05T10:34:34.871Z,101166.47
2022-11-05T10:37:02.057Z,101173.53
2022-11-05T10:39:32.567Z,101170.91
2022-11-05T10:42:11.063Z,101172.66
2022-11-05T10:45:04.707Z,101165.56
2022-11-05T10:47:59.627Z,101175.31
2022-11-05T10:50:29.483Z,101161.97
2022-11-05T10:53:02.269Z,101176.16
2022-11-05T10:55:33.944Z,101177.03
2022-11-05T10:58:35.182Z,101171.72
2022-11-05T11:01:09.099Z,101174.34
2022-11-05T11:03:44.267Z,101171.66
2022-11-05T11:06:32.441Z,101165.44
2022-11-05T11:09:03.073Z,101168.13
2022-11-05T11:11:29.947Z,101169.88
2022-11-05T11:14:04.169Z,101170.72
2022-11-05T11:16:47.305Z,101169.81
2022-11-05T11:19:30.098Z,101176.00
2022-11-05T11:22:05.890Z,101171.53
2022-11-05T11:24:48.896Z,101181.28
2022-11-05T11:27:30.196Z,101181.25
2022-11-05T11:30:02.906Z,101183.84
2022-11-05T11:32:37.978Z,101183.81
2022-11-05T11:35:08.837Z,101187.31
2022-11-05T11:37:41.875Z,101185.53
2022-11-05T11:40:30.651Z,101190.81
2022-11-05T11:43:01.708Z,101184.59
2022-11-05T11:45:38.844Z,101179.19
2022-11-05T11:48:07.697Z,101185.38
2022-11-05T11:50:44.484Z,101184.47
2022-11-05T11:53:21.364Z,101178.25
2022-11-05T11:56:12.344Z,101179.09
2022-11-05T11:58:54.446Z,101176.38
2022-11-05T12:01:39.674Z,101173.69
2022-11-05T12:04:38.009Z,101181.63
2022-11-05T12:07:48.291Z,101177.22
2022-11-05T12:10:28.305Z,101171.03
2022-11-05T12:13:20.022Z,101169.28
2022-11-05T12:16:37.475Z,101166.63
2022-11-05T12:19:48.104Z,101164.88
2022-11-05T12:22:55.191Z,101171.09
2022-11-05T12:25:49.133Z,101166.66
2022-11-05T12:29:04.661Z,101165.81
2022-11-05T12:31:43.163Z,101157.84
2022-11-05T12:35:07.746Z,101161.44
2022-11-05T12:37:58.374Z,101162.34
2022-11-05T12:40:55.766Z,101158.81
2022-11-05T12:43:57.769Z,101146.38
2022-11-05T12:47:09.551Z,101148.13
2022-11-05T12:50:00.232Z,101149.00
2022-11-05T12:52:44.879Z,101148.13
2022-11-05T12:55:45.532Z,101152.59
2022-11-05T12:58:31.346Z,101154.38
2022-11-05T13:01:06.706Z,101154.34
2022-11-05T13:03:51.817Z,101158.72
2022-11-05T13:06:25.852Z,101154.25
2022-11-05T13:09:04.325Z,101155.09
2022-11-05T13:11:42.551Z,101163.03
2022-11-05T13:14:55.813Z,101154.97
2022-11-05T13:17:34.436Z,101155.88
2022-11-05T13:20:20.081Z,101163.88
2022-11-05T13:23:07.100Z,101155.91
2022-11-05T13:25:42.015Z,101163.03
2022-11-05T13:28:28.127Z,101163.03
2022-11-05T13:31:02.900Z,101154.13
2022-11-05T13:33:39.455Z,101155.91
2022-11-05T13:36:47.101Z,101154.13
2022-11-05T13:39:24.401Z,101151.47
2022-11-05T13:42:12.073Z,101153.19
2022-11-05T13:45:08.076Z,101149.59
2022-11-05T13:48:05.850Z,101147.78
2022-11-05T13:51:12.609Z,101147.75
2022-11-05T13:53:57.275Z,101151.31
2022-11-05T13:56:36.206Z,101151.38
2022-11-05T13:59:38.217Z,101147.88
2022-11-05T14:02:22.119Z,101164.78
2022-11-05T14:05:00.697Z,101166.56
2022-11-05T14:07:38.560Z,101160.34
2022-11-05T14:10:43.988Z,101156.81
2022-11-05T14:13:20.936Z,101156.88
2022-11-05T14:16:15.826Z,101158.66
2022-11-05T14:18:52.652Z,101159.53
2022-11-05T14:21:31.576Z,101160.41
2022-11-05T14:24:27.925Z,101158.63
2022-11-05T14:27:00.786Z,101148.84
2022-11-05T14:29:40.394Z,101150.63
2022-11-05T14:32:25.277Z,101152.44
2022-11-05T14:35:16.023Z,101153.38
2022-11-05T14:37:54.248Z,101155.22
2022-11-05T14:40:42.335Z,101154.34
2022-11-05T14:43:15.134Z,101152.63
2022-11-05T14:45:53.912Z,101158.00
2022-11-05T14:48:43.991Z,101150.06
2022-11-05T14:51:44.311Z,101164.34
2022-11-05T14:54:33.084Z,101167.94
2022-11-05T14:57:02.391Z,101166.19
2022-11-05T14:59:29.085Z,101177.75
2022-11-05T15:02:09.667Z,101176.00
2022-11-05T15:04:40.545Z,101172.50
2022-11-05T15:07:07.229Z,101174.28
2022-11-05T15:09:49.345Z,101173.47
2022-11-05T15:12:41.786Z,101171.72
2022-11-05T15:15:46.962Z,101177.06
2022-11-05T15:18:33.548Z,101176.22
2022-11-05T15:21:04.773Z,101176.22
2022-11-05T15:23:42.358Z,101184.22
2022-11-05T15:26:20.453Z,101170.97
2022-11-05T15:28:52.969Z,101179.81
2022-11-05T15:31:41.173Z,101178.94
2022-11-05T15:34:35.646Z,101170.06
2022-11-05T15:37:09.631Z,101163.88
2022-11-05T15:39:46.213Z,101171.84
2022-11-05T15:42:22.922Z,101163.91
2022-11-05T15:44:58.036Z,101171.84
2022-11-05T15:47:34.486Z,101178.94
2022-11-05T15:50:14.950Z,101181.63
2022-11-05T15:52:54.533Z,101173.66
2022-11-05T15:55:24.801Z,101181.63
2022-11-05T15:58:01.251Z,101175.41
2022-11-05T16:00:33.032Z,101181.63
2022-11-05T16:03:22.800Z,101180.72
2022-11-05T16:05:50.002Z,101187.84
2022-11-05T16:08:23.878Z,101182.53
2022-11-05T16:10:55.064Z,101184.28
2022-11-05T16:13:30.783Z,101187.81
2022-11-05T16:16:21.797Z,101187.81
2022-11-05T16:18:48.784Z,101181.63
2022-11-05T16:21:23.035Z,101177.22
2022-11-05T16:23:49.718Z,101173.66
2022-11-05T16:26:55.868Z,101170.13
2022-11-05T16:29:35.038Z,101165.69
2022-11-05T16:32:36.751Z,101168.38
2022-11-05T16:35:06.962Z,101170.13
2022-11-05T16:37:40.914Z,101164.81
2022-11-05T16:40:17.787Z,101171.88
2022-11-05T16:42:48.288Z,101176.34
2022-11-05T16:45:18.428Z,101175.44
2022-11-05T16:47:46.707Z,101179.00
2022-11-05T16:50:30.936Z,101179.00
2022-11-05T16:52:57.862Z,101182.50
2022-11-05T16:55:24.632Z,101178.97
2022-11-05T16:57:54.581Z,101187.84
2022-11-05T17:00:22.480Z,101189.63
2022-11-05T17:02:50.236Z,101186.06
2022-11-05T17:05:30.307Z,101179.88
2022-11-05T17:07:57.809Z,101189.63
2022-11-05T17:10:26.090Z,101194.94
2022-11-05T17:12:53.361Z,101200.22
2022-11-05T17:15:35.512Z,101194.91
2022-11-05T17:18:04.343Z,101201.13
2022-11-05T17:20:45.494Z,101207.31
2022-11-05T17:23:17.681Z,101209.09
2022-11-05T17:25:51.664Z,101210.88
2022-11-05T17:28:19.998Z,101216.19
2022-11-05T17:30:54.196Z,101217.94
2022-11-05T17:33:24.183Z,101213.50
2022-11-05T17:35:51.847Z,101207.34
2022-11-05T17:38:19.390Z,101212.63
2022-11-05T17:40:46.230Z,101203.78
2022-11-05T17:43:13.420Z,101211.75
2022-11-05T17:45:47.499Z,101212.66
2022-11-05T17:48:15.750Z,101209.97
2022-11-05T17:50:45.352Z,101220.59
2022-11-05T17:53:14.033Z,101219.72
2022-11-05T17:55:46.494Z,101215.31
2022-11-05T17:58:13.940Z,101223.25
2022-11-05T18:00:42.104Z,101221.47
2022-11-05T18:03:10.854Z,101233.00
2022-11-05T18:05:38.473Z,101236.56
2022-11-05T18:08:06.127Z,101240.94
2022-11-05T18:10:33.153Z,101232.13
2022-11-05T18:12:59.982Z,101227.69
2022-11-05T18:15:26.788Z,101231.22
2022-11-05T18:17:53.609Z,101231.22
2022-11-05T18:20:20.920Z,101232.09
2022-11-05T18:22:51.587Z,101232.97
2022-11-05T18:25:18.904Z,101233.84
2022-11-05T18:27:45.805Z,101237.41
2022-11-05T18:30:15.376Z,101240.06
2022-11-05T18:32:44.010Z,101232.06
2022-11-05T18:35:11.241Z,101228.56
2022-11-05T18:37:39.057Z,101215.28
2022-11-05T18:40:07.556Z,101217.91
2022-11-05T18:42:34.376Z,101211.72
2022-11-05T18:45:01.186Z,101210.84
2022-11-05T18:47:28.019Z,101204.63
2022-11-05T18:49:54.832Z,101211.72
2022-11-05T18:52:21.607Z,101199.34
2022-11-05T18:54:48.459Z,101201.97
2022-11-05T18:57:15.219Z,101201.09
2022-11-05T18:59:46.479Z,101200.19
2022-11-05T19:02:14.353Z,101201.09
2022-11-05T19:05:00.278Z,101197.56
2022-11-05T19:07:28.929Z,101200.22
2022-11-05T19:09:55.865Z,101202.84
2022-11-05T19:12:22.973Z,101203.75
2022-11-05T19:14:49.947Z,101202.84
2022-11-05T19:17:16.817Z,101206.38
2022-11-05T19:19:43.619Z,101214.34
2022-11-05T19:22:10.425Z,101215.22
2022-11-05T19:24:37.278Z,101205.53
2022-11-05T19:27:04.245Z,101205.53
2022-11-05T19:29:31.133Z,101200.22
2022-11-05T19:31:57.945Z,101209.91
2022-11-05T19:34:24.827Z,101202.88
2022-11-05T19:36:51.635Z,101201.97
2022-11-05T19:39:18.440Z,101200.22
2022-11-05T19:41:45.224Z,101201.06
2022-11-05T19:44:12.105Z,101203.72
2022-11-05T19:46:38.950Z,101199.28
2022-11-05T19:49:05.761Z,101202.84
2022-11-05T19:51:32.805Z,101200.19
2022-11-05T19:54:01.681Z,101187.81
2022-11-05T19:56:34.045Z,101190.47
2022-11-05T19:59:03.216Z,101196.66
2022-11-05T20:01:30.569Z,101194.88
2022-11-05T20:03:58.860Z,101199.28
2022-11-05T20:06:31.843Z,101196.66
2022-11-05T20:11:50.767Z,101195.78
2022-11-05T20:14:17.667Z,101195.75
2022-11-05T20:16:46.236Z,101205.50
2022-11-05T20:19:17.601Z,101192.22
2022-11-05T20:21:45.065Z,101195.75
2022-11-05T20:24:18.818Z,101204.59
2022-11-05T20:26:50.544Z,101209.91
2022-11-05T20:29:17.343Z,101205.47
2022-11-05T20:31:44.093Z,101203.66
2022-11-05T20:34:10.867Z,101201.00
2022-11-05T20:36:39.065Z,101202.75
2022-11-05T20:39:05.978Z,101201.88
2022-11-05T20:41:33.183Z,101199.25
2022-11-05T20:44:00.067Z,101201.00
2022-11-05T20:46:27.035Z,101196.56
2022-11-05T20:48:54.709Z,101196.56
2022-11-05T20:51:24.263Z,101200.09
2022-11-05T20:53:56.888Z,101200.09
2022-11-05T20:56:30.610Z,101197.44
2022-11-05T20:58:59.280Z,101196.56
2022-11-05T21:01:32.131Z,101194.78
2022-11-05T21:03:59.730Z,101197.44
2022-11-05T21:06:26.662Z,101200.09
2022-11-05T21:08:53.890Z,101205.41
2022-11-05T21:11:21.264Z,101209.81
2022-11-05T21:13:48.444Z,101200.97
2022-11-05T21:16:18.773Z,101219.56
2022-11-05T21:18:46.866Z,101207.16
2022-11-05T21:21:18.045Z,101200.97
2022-11-05T21:23:45.228Z,101205.41
2022-11-05T21:26:14.652Z,101206.28
2022-11-05T21:28:42.407Z,101211.59
2022-11-05T21:31:10.243Z,101216.88
2022-11-05T21:33:37.520Z,101200.94
2022-11-05T21:36:10.965Z,101200.06
2022-11-05T21:38:38.091Z,101212.47
2022-11-05T21:41:06.253Z,101203.59
2022-11-05T21:43:33.530Z,101206.25
2022-11-05T21:46:02.530Z,101206.25
2022-11-05T21:48:29.434Z,101214.22
2022-11-05T21:51:15.105Z,101201.84
2022-11-05T21:54:00.297Z,101196.53
2022-11-05T21:56:46.652Z,101195.63
2022-11-05T21:59:35.590Z,101185.91
2022-11-05T22:02:03.089Z,101189.47
2022-11-05T22:04:36.160Z,101185.00
2022-11-05T22:07:03.693Z,101195.63
2022-11-05T22:09:30.546Z,101186.81
2022-11-05T22:11:57.461Z,101192.09
2022-11-05T22:14:24.940Z,101192.13
2022-11-05T22:16:51.887Z,101180.59
2022-11-05T22:19:19.524Z,101177.97
2022-11-05T22:21:47.116Z,101179.72
2022-11-05T22:24:14.051Z,101182.38
2022-11-05T22:26:41.751Z,101186.81
2022-11-05T22:29:08.910Z,101179.72
2022-11-05T22:31:36.674Z,101178.81
2022-11-05T22:34:05.295Z,101177.94
2022-11-05T22:36:35.425Z,101177.03
2022-11-05T22:39:03.558Z,101168.22
2022-11-05T22:41:30.581Z,101174.38
2022-11-05T22:43:57.765Z,101180.53
2022-11-05T22:46:26.573Z,101177.00
2022-11-05T22:48:54.313Z,101182.31
2022-11-05T22:51:25.563Z,101184.06
2022-11-05T22:53:52.806Z,101171.66
2022-11-05T22:56:24.954Z,101173.41
2022-11-05T22:58:52.581Z,101173.41
2022-11-05T23:01:22.005Z,101169.84
2022-11-05T23:03:50.838Z,101158.31
2022-11-05T23:06:43.750Z,101160.06
2022-11-05T23:09:37.759Z,101159.19
2022-11-05T23:12:08.841Z,101146.75
2022-11-05T23:14:36.685Z,101146.75
2022-11-05T23:17:22.513Z,101142.34
2022-11-05T23:20:07.966Z,101145.84
2022-11-05T23:22:53.151Z,101139.63
2022-11-05T23:25:22.573Z,101138.72
2022-11-05T23:27:53.295Z,101129.91
2022-11-05T23:30:26.480Z,101129.91
2022-11-05T23:32:54.116Z,101123.72
2022-11-05T23:35:40.849Z,101134.31
2022-11-05T23:38:26.011Z,101136.94
2022-11-05T23:41:11.314Z,101137.81
2022-11-05T23:43:56.468Z,101129.84
2022-11-05T23:46:41.616Z,101131.59
2022-11-05T23:49:08.514Z,101128.06
2022-11-05T23:51:35.396Z,101118.34
2022-11-05T23:54:02.241Z,101116.56
2022-11-05T23:56:30.933Z,101115.69
2022-11-05T23:58:58.023Z,101107.75
